Time;durP1;ratioP1;P1;durP2;ratioP2;P2;SDS_P1;SDS_P2;PMS_P1;PMS_P2;Temp;Humidity;BMP_temperature;BMP_pressure;BME280_temperature;BME280_humidity;BME280_pressure;Samples;Min_cycle;Max_cycle;Signal;HPM_P1;HPM_P2
2021/09/26 00:00:37;;;;;;;7.53;4.53;;;;;;;;;;4977272;28;20102;-68
2021/09/26 00:03:06;;;;;;;8.05;5.15;;;;;;;;;;4970524;28;20090;-68
2021/09/26 00:05:34;;;;;;;7.50;4.50;;;;;;;;;;4983859;28;20054;-68
2021/09/26 00:08:03;;;;;;;9.63;5.45;;;;;;;;;;4987665;28;20157;-68
2021/09/26 00:10:33;;;;;;;5.82;4.05;;;;;;;;;;4987898;28;20046;-71
2021/09/26 00:13:01;;;;;;;7.00;4.40;;;;;;;;;;4986865;28;20086;-68
2021/09/26 00:15:33;;;;;;;6.13;4.45;;;;;;;;;;4986681;28;20074;-69
2021/09/26 00:18:02;;;;;;;7.65;4.82;;;;;;;;;;4988125;28;20093;-71
2021/09/26 00:20:30;;;;;;;8.13;4.68;;;;;;;;;;4979227;28;20130;-68
2021/09/26 00:22:58;;;;;;;6.85;4.00;;;;;;;;;;4988143;28;20556;-68
2021/09/26 00:25:27;;;;;;;8.00;4.57;;;;;;;;;;4984908;28;20527;-69
2021/09/26 00:27:56;;;;;;;7.03;4.68;;;;;;;;;;4970533;28;20098;-68
2021/09/26 00:30:25;;;;;;;8.02;4.70;;;;;;;;;;4980416;28;20089;-69
2021/09/26 00:32:53;;;;;;;9.88;4.80;;;;;;;;;;4989607;28;20133;-68
2021/09/26 00:35:21;;;;;;;9.65;4.53;;;;;;;;;;4987645;28;20055;-68
2021/09/26 00:37:49;;;;;;;6.65;4.47;;;;;;;;;;4988906;28;20082;-68
2021/09/26 00:40:18;;;;;;;8.90;4.30;;;;;;;;;;4987491;28;20050;-68
2021/09/26 00:42:46;;;;;;;7.07;4.32;;;;;;;;;;4986680;28;20082;-67
2021/09/26 00:45:16;;;;;;;8.88;5.20;;;;;;;;;;4983997;28;20469;-71
2021/09/26 00:47:44;;;;;;;9.52;5.15;;;;;;;;;;4971610;28;20049;-71
2021/09/26 00:50:13;;;;;;;7.53;4.53;;;;;;;;;;4983799;28;20161;-68
2021/09/26 00:52:41;;;;;;;6.50;3.88;;;;;;;;;;4979059;28;20085;-70
2021/09/26 00:55:10;;;;;;;8.90;4.88;;;;;;;;;;4988767;28;20046;-69
2021/09/26 00:57:39;;;;;;;6.15;4.35;;;;;;;;;;4987966;28;20097;-67
2021/09/26 01:00:08;;;;;;;11.93;4.93;;;;;;;;;;4992197;28;20569;-67
2021/09/26 01:02:38;;;;;;;7.45;4.88;;;;;;;;;;4991155;28;20046;-68
2021/09/26 01:05:07;;;;;;;7.45;4.18;;;;;;;;;;4992173;28;20065;-69
2021/09/26 01:07:39;;;;;;;9.45;4.88;;;;;;;;;;4982060;28;20130;-71
2021/09/26 01:10:09;;;;;;;9.23;4.97;;;;;;;;;;4985085;28;20086;-67
2021/09/26 01:12:42;;;;;;;10.13;4.93;;;;;;;;;;4988609;28;20177;-69
2021/09/26 01:15:12;;;;;;;8.23;4.82;;;;;;;;;;4990818;28;20101;-67
2021/09/26 01:17:44;;;;;;;10.13;4.90;;;;;;;;;;4986476;28;20808;-67
2021/09/26 01:20:32;;;;;;;7.63;4.57;;;;;;;;;;4984706;28;20047;-68
2021/09/26 01:23:13;;;;;;;7.75;4.85;;;;;;;;;;4992513;28;20046;-68
2021/09/26 01:25:50;;;;;;;10.77;4.88;;;;;;;;;;4989552;28;20050;-68
2021/09/26 01:28:25;;;;;;;8.95;5.15;;;;;;;;;;4984133;28;20109;-68
2021/09/26 01:30:55;;;;;;;8.27;4.90;;;;;;;;;;4984850;28;20054;-68
2021/09/26 01:33:26;;;;;;;9.05;4.97;;;;;;;;;;4981494;28;20057;-69
2021/09/26 01:35:57;;;;;;;6.65;4.22;;;;;;;;;;4981780;28;20082;-68
2021/09/26 01:38:28;;;;;;;8.68;4.53;;;;;;;;;;4987491;28;20047;-68
2021/09/26 01:40:58;;;;;;;7.28;4.18;;;;;;;;;;4984575;28;20151;-68
2021/09/26 01:43:29;;;;;;;9.05;4.90;;;;;;;;;;4979491;28;20161;-71
2021/09/26 01:45:59;;;;;;;7.15;4.53;;;;;;;;;;4979069;28;20529;-68
2021/09/26 01:48:34;;;;;;;7.53;4.95;;;;;;;;;;4986493;28;20047;-68
2021/09/26 01:51:03;;;;;;;9.27;4.88;;;;;;;;;;4987882;28;20548;-68
2021/09/26 01:53:32;;;;;;;7.53;4.60;;;;;;;;;;4986074;28;20073;-68
2021/09/26 01:56:01;;;;;;;7.82;4.50;;;;;;;;;;4979571;28;20545;-68
2021/09/26 01:58:30;;;;;;;6.93;3.78;;;;;;;;;;4988270;28;20142;-68
2021/09/26 02:01:00;;;;;;;7.38;4.50;;;;;;;;;;4985057;28;20472;-68
2021/09/26 02:03:30;;;;;;;9.60;4.38;;;;;;;;;;4977957;28;20105;-68
2021/09/26 02:05:59;;;;;;;10.55;5.05;;;;;;;;;;4983023;28;20134;-67
2021/09/26 02:08:27;;;;;;;7.80;4.60;;;;;;;;;;4989351;28;20197;-68
2021/09/26 02:10:56;;;;;;;7.45;4.50;;;;;;;;;;4987639;28;20077;-72
2021/09/26 02:13:25;;;;;;;8.43;4.68;;;;;;;;;;4975378;28;20133;-68
2021/09/26 02:15:54;;;;;;;6.90;4.65;;;;;;;;;;4985571;28;20056;-67
2021/09/26 02:18:25;;;;;;;6.90;4.43;;;;;;;;;;4977710;28;20501;-70
2021/09/26 02:20:55;;;;;;;7.78;4.45;;;;;;;;;;4979813;28;20050;-74
2021/09/26 02:23:24;;;;;;;7.57;4.80;;;;;;;;;;4976899;28;20050;-71
2021/09/26 02:25:53;;;;;;;7.78;4.93;;;;;;;;;;4981160;28;20049;-69
2021/09/26 02:28:22;;;;;;;7.35;4.75;;;;;;;;;;4989218;28;20136;-68
2021/09/26 02:30:51;;;;;;;8.65;4.88;;;;;;;;;;4989129;28;20155;-69
2021/09/26 02:33:19;;;;;;;7.70;5.07;;;;;;;;;;4991735;28;20057;-70
2021/09/26 02:35:49;;;;;;;8.15;4.90;;;;;;;;;;4986856;28;20502;-68
2021/09/26 02:38:17;;;;;;;9.25;5.03;;;;;;;;;;4978962;28;20141;-68
2021/09/26 02:40:48;;;;;;;6.63;4.40;;;;;;;;;;4989433;28;20561;-71
2021/09/26 02:43:21;;;;;;;8.68;4.97;;;;;;;;;;4982680;28;20130;-69
2021/09/26 02:45:50;;;;;;;7.70;4.35;;;;;;;;;;4990268;28;20046;-68
2021/09/26 02:48:20;;;;;;;7.15;4.60;;;;;;;;;;4990291;28;20100;-70
2021/09/26 02:50:51;;;;;;;8.80;4.80;;;;;;;;;;4983057;28;20340;-72
2021/09/26 02:53:20;;;;;;;9.65;5.00;;;;;;;;;;4984846;28;20074;-70
2021/09/26 02:55:49;;;;;;;7.45;4.88;;;;;;;;;;4985319;28;20145;-71
2021/09/26 02:58:17;;;;;;;8.82;4.80;;;;;;;;;;4987732;28;20055;-68
2021/09/26 03:00:46;;;;;;;7.68;4.47;;;;;;;;;;4988853;28;20088;-71
2021/09/26 03:03:16;;;;;;;6.97;5.05;;;;;;;;;;4987576;28;20050;-73
2021/09/26 03:05:45;;;;;;;8.98;4.85;;;;;;;;;;4985552;28;20082;-73
2021/09/26 03:08:16;;;;;;;9.20;5.40;;;;;;;;;;4976522;28;20046;-68
2021/09/26 03:10:45;;;;;;;11.68;5.10;;;;;;;;;;4984531;28;20051;-68
2021/09/26 03:13:13;;;;;;;7.72;5.40;;;;;;;;;;4971808;28;20519;-68
2021/09/26 03:15:42;;;;;;;10.02;5.13;;;;;;;;;;4986613;28;20131;-69
2021/09/26 03:18:10;;;;;;;9.27;5.10;;;;;;;;;;4989538;28;20133;-69
2021/09/26 03:20:38;;;;;;;6.55;4.30;;;;;;;;;;4978059;28;20096;-69
2021/09/26 03:23:07;;;;;;;6.82;4.57;;;;;;;;;;4979297;28;20554;-69
2021/09/26 03:25:38;;;;;;;5.78;4.18;;;;;;;;;;4609795;28;10000522;-69
2021/09/26 03:28:07;;;;;;;7.32;4.65;;;;;;;;;;682067;28;10002140;-68
2021/09/26 03:30:35;;;;;;;7.93;4.47;;;;;;;;;;4969651;28;20149;-71
2021/09/26 03:33:04;;;;;;;7.95;4.93;;;;;;;;;;4960426;28;20129;-67
2021/09/26 03:35:32;;;;;;;6.00;4.22;;;;;;;;;;4983620;28;20046;-69
2021/09/26 03:38:00;;;;;;;8.52;4.55;;;;;;;;;;4989356;28;20050;-71
2021/09/26 03:40:29;;;;;;;8.20;4.88;;;;;;;;;;4970845;28;20537;-70
2021/09/26 03:42:59;;;;;;;5.93;4.35;;;;;;;;;;4970971;28;20134;-68
2021/09/26 03:45:27;;;;;;;11.98;4.18;;;;;;;;;;4981787;28;20054;-70
2021/09/26 03:47:56;;;;;;;8.75;4.53;;;;;;;;;;4988039;28;20064;-68
2021/09/26 03:50:24;;;;;;;6.22;4.20;;;;;;;;;;4988041;28;20122;-69
2021/09/26 03:52:53;;;;;;;8.07;3.85;;;;;;;;;;4989952;28;20457;-68
2021/09/26 03:55:21;;;;;;;6.38;3.97;;;;;;;;;;4979280;28;20133;-74
2021/09/26 03:57:50;;;;;;;6.82;3.75;;;;;;;;;;4976147;28;20125;-68
2021/09/26 04:00:22;;;;;;;6.72;4.40;;;;;;;;;;4976605;28;20074;-69
2021/09/26 04:02:50;;;;;;;5.75;3.90;;;;;;;;;;4981811;28;20053;-67
2021/09/26 04:05:19;;;;;;;7.50;4.18;;;;;;;;;;4973813;28;20542;-68
2021/09/26 04:07:47;;;;;;;7.50;4.47;;;;;;;;;;4970914;28;20562;-69
2021/09/26 04:10:16;;;;;;;6.97;4.22;;;;;;;;;;4970881;28;20104;-71
2021/09/26 04:12:45;;;;;;;6.28;4.07;;;;;;;;;;4971464;28;20046;-68
2021/09/26 04:15:14;;;;;;;8.40;4.43;;;;;;;;;;4987923;28;20046;-68
2021/09/26 04:17:43;;;;;;;9.02;4.53;;;;;;;;;;4983729;28;20114;-69
2021/09/26 04:20:12;;;;;;;6.68;4.00;;;;;;;;;;4984488;28;20084;-67
2021/09/26 04:22:40;;;;;;;5.32;3.78;;;;;;;;;;4971339;28;20122;-67
2021/09/26 04:25:09;;;;;;;5.50;3.70;;;;;;;;;;4978729;28;20124;-69
2021/09/26 04:27:37;;;;;;;9.30;3.85;;;;;;;;;;4988789;28;20101;-70
2021/09/26 04:30:07;;;;;;;5.10;3.47;;;;;;;;;;4982873;28;20130;-67
2021/09/26 04:32:35;;;;;;;5.90;3.55;;;;;;;;;;4982664;28;20097;-68
2021/09/26 04:35:05;;;;;;;4.88;3.30;;;;;;;;;;4988501;28;20061;-67
2021/09/26 04:37:34;;;;;;;6.15;3.45;;;;;;;;;;4986149;28;20042;-68
2021/09/26 04:40:02;;;;;;;7.35;3.85;;;;;;;;;;4985622;28;20459;-70
2021/09/26 04:42:30;;;;;;;6.05;3.40;;;;;;;;;;4979118;28;20085;-68
2021/09/26 04:44:59;;;;;;;5.50;3.50;;;;;;;;;;4993089;28;20137;-68
2021/09/26 04:47:27;;;;;;;6.50;3.38;;;;;;;;;;4993281;28;20054;-71
2021/09/26 04:49:55;;;;;;;5.95;3.63;;;;;;;;;;4992109;28;20050;-72
2021/09/26 04:52:25;;;;;;;5.55;3.45;;;;;;;;;;4979989;28;20133;-67
2021/09/26 04:54:53;;;;;;;5.70;3.22;;;;;;;;;;4981053;28;20074;-69
2021/09/26 04:57:21;;;;;;;5.78;3.30;;;;;;;;;;4986357;28;20518;-68
2021/09/26 04:59:50;;;;;;;4.82;3.17;;;;;;;;;;4987709;28;20483;-68
2021/09/26 05:02:18;;;;;;;7.10;3.88;;;;;;;;;;4993104;28;20125;-69
2021/09/26 05:04:47;;;;;;;5.13;3.20;;;;;;;;;;4992317;28;20050;-70
2021/09/26 05:07:15;;;;;;;9.43;3.47;;;;;;;;;;4993442;28;20136;-71
2021/09/26 05:09:45;;;;;;;7.57;3.67;;;;;;;;;;4992788;28;20039;-67
2021/09/26 05:12:13;;;;;;;7.15;3.55;;;;;;;;;;4992305;28;20582;-68
2021/09/26 05:14:41;;;;;;;6.93;3.85;;;;;;;;;;4992375;28;20088;-69
2021/09/26 05:17:10;;;;;;;5.80;3.42;;;;;;;;;;4991497;28;20451;-68
2021/09/26 05:19:39;;;;;;;6.15;3.10;;;;;;;;;;4990843;28;20073;-68
2021/09/26 05:22:07;;;;;;;4.78;3.22;;;;;;;;;;4974803;28;20447;-67
2021/09/26 05:24:36;;;;;;;3.97;3.20;;;;;;;;;;4980733;28;20083;-67
2021/09/26 05:27:06;;;;;;;4.70;3.00;;;;;;;;;;4978395;28;20105;-68
2021/09/26 05:29:34;;;;;;;4.45;2.90;;;;;;;;;;4980772;28;20105;-71
2021/09/26 05:32:03;;;;;;;5.93;3.47;;;;;;;;;;4992568;28;20089;-69
2021/09/26 05:34:31;;;;;;;5.15;3.22;;;;;;;;;;4989811;28;20133;-67
2021/09/26 05:37:00;;;;;;;4.65;3.38;;;;;;;;;;4982868;28;20047;-68
2021/09/26 05:39:28;;;;;;;4.22;2.88;;;;;;;;;;4981144;28;20113;-70
2021/09/26 05:41:57;;;;;;;5.18;3.05;;;;;;;;;;4980949;28;20078;-68
2021/09/26 05:44:27;;;;;;;4.47;2.97;;;;;;;;;;4989653;28;20061;-67
2021/09/26 05:46:55;;;;;;;5.00;3.05;;;;;;;;;;4977892;28;20146;-68
2021/09/26 05:49:23;;;;;;;4.70;3.25;;;;;;;;;;4978901;28;20071;-68
2021/09/26 05:51:52;;;;;;;4.38;3.08;;;;;;;;;;4981261;28;20117;-68
2021/09/26 05:54:20;;;;;;;5.00;3.00;;;;;;;;;;4991256;28;20140;-69
2021/09/26 05:56:49;;;;;;;6.07;3.08;;;;;;;;;;4989326;28;20050;-69
2021/09/26 05:59:17;;;;;;;4.28;2.90;;;;;;;;;;4979019;28;20055;-68
2021/09/26 06:01:47;;;;;;;3.47;2.53;;;;;;;;;;4975536;28;20051;-72
2021/09/26 06:04:15;;;;;;;3.97;2.90;;;;;;;;;;4982031;28;20060;-69
2021/09/26 06:06:43;;;;;;;4.07;3.00;;;;;;;;;;4980465;28;20085;-71
2021/09/26 06:09:12;;;;;;;4.93;3.03;;;;;;;;;;4974879;28;20139;-67
2021/09/26 06:11:40;;;;;;;6.70;3.25;;;;;;;;;;4990840;28;20081;-68
2021/09/26 06:14:08;;;;;;;6.00;3.30;;;;;;;;;;4989784;28;20498;-69
2021/09/26 06:16:37;;;;;;;6.05;3.15;;;;;;;;;;4988037;28;20517;-67
2021/09/26 06:19:06;;;;;;;5.20;3.00;;;;;;;;;;4990797;28;20640;-67
2021/09/26 06:21:35;;;;;;;4.78;3.50;;;;;;;;;;4990998;28;20054;-68
2021/09/26 06:24:03;;;;;;;6.40;3.40;;;;;;;;;;4980492;28;20130;-67
2021/09/26 06:26:31;;;;;;;5.93;3.60;;;;;;;;;;4989313;28;20046;-70
2021/09/26 06:29:00;;;;;;;5.45;3.38;;;;;;;;;;4991823;28;20093;-67
2021/09/26 06:31:28;;;;;;;5.18;3.17;;;;;;;;;;4990630;28;20093;-72
2021/09/26 06:33:57;;;;;;;5.55;3.42;;;;;;;;;;4989570;28;20042;-69
2021/09/26 06:36:27;;;;;;;6.05;3.25;;;;;;;;;;4991087;28;20137;-69
2021/09/26 06:38:55;;;;;;;8.10;3.95;;;;;;;;;;4976735;28;20487;-67
2021/09/26 06:41:24;;;;;;;5.05;2.90;;;;;;;;;;4991591;28;20494;-68
2021/09/26 06:43:52;;;;;;;4.70;3.28;;;;;;;;;;4980278;28;20042;-67
2021/09/26 06:46:21;;;;;;;5.05;3.03;;;;;;;;;;4983949;28;20510;-68
2021/09/26 06:48:49;;;;;;;5.72;2.92;;;;;;;;;;4990818;28;20053;-72
2021/09/26 06:51:18;;;;;;;4.00;2.92;;;;;;;;;;4984160;28;20669;-67
2021/09/26 06:53:47;;;;;;;4.00;2.90;;;;;;;;;;4981435;28;20046;-70
2021/09/26 06:56:16;;;;;;;3.45;2.55;;;;;;;;;;4991426;28;20077;-73
2021/09/26 06:58:44;;;;;;;4.53;3.10;;;;;;;;;;4987953;28;20060;-70
2021/09/26 07:01:13;;;;;;;7.15;3.30;;;;;;;;;;4981559;28;20073;-68
2021/09/26 07:03:42;;;;;;;5.63;3.25;;;;;;;;;;4986753;28;20045;-68
2021/09/26 07:06:10;;;;;;;5.45;2.80;;;;;;;;;;4983774;28;20060;-71
2021/09/26 07:08:39;;;;;;;4.47;2.63;;;;;;;;;;4982893;28;20054;-68
2021/09/26 07:11:09;;;;;;;7.95;3.28;;;;;;;;;;4986390;28;20164;-69
2021/09/26 07:13:38;;;;;;;4.18;2.78;;;;;;;;;;4979050;28;20066;-67
2021/09/26 07:16:06;;;;;;;5.15;3.30;;;;;;;;;;4987001;28;20046;-67
2021/09/26 07:18:35;;;;;;;7.03;3.30;;;;;;;;;;4977820;28;20082;-70
2021/09/26 07:21:04;;;;;;;4.70;2.92;;;;;;;;;;4991200;28;20050;-70
2021/09/26 07:23:32;;;;;;;7.07;3.13;;;;;;;;;;4990100;28;20053;-70
2021/09/26 07:26:01;;;;;;;4.00;2.72;;;;;;;;;;4991118;28;20065;-68
2021/09/26 07:28:31;;;;;;;4.28;2.60;;;;;;;;;;4989786;28;20088;-67
2021/09/26 07:31:00;;;;;;;4.55;2.88;;;;;;;;;;4988442;28;20062;-67
2021/09/26 07:33:28;;;;;;;5.78;3.33;;;;;;;;;;4983914;28;20051;-69
2021/09/26 07:35:57;;;;;;;5.40;2.88;;;;;;;;;;4982347;28;20050;-70
2021/09/26 07:38:25;;;;;;;3.33;2.33;;;;;;;;;;4990358;28;20051;-68
2021/09/26 07:40:54;;;;;;;4.10;2.60;;;;;;;;;;4990904;28;20046;-67
2021/09/26 07:43:25;;;;;;;6.95;2.85;;;;;;;;;;4988506;28;20514;-67
2021/09/26 07:45:57;;;;;;;5.85;2.60;;;;;;;;;;4990964;28;20142;-67
2021/09/26 07:48:26;;;;;;;3.88;2.45;;;;;;;;;;4991154;28;20084;-67
2021/09/26 07:50:55;;;;;;;5.00;2.60;;;;;;;;;;4981835;28;20042;-68
2021/09/26 07:53:24;;;;;;;4.72;2.33;;;;;;;;;;4972288;28;20055;-67
2021/09/26 07:55:52;;;;;;;4.50;2.40;;;;;;;;;;4991060;28;20054;-70
2021/09/26 07:58:21;;;;;;;4.18;2.35;;;;;;;;;;4990858;28;20054;-68
2021/09/26 08:00:50;;;;;;;6.22;2.25;;;;;;;;;;4991121;28;20050;-69
2021/09/26 08:03:20;;;;;;;4.35;2.60;;;;;;;;;;4989864;28;20399;-69
2021/09/26 08:05:49;;;;;;;4.28;2.33;;;;;;;;;;4983154;28;20113;-67
2021/09/26 08:08:17;;;;;;;6.25;2.45;;;;;;;;;;4987639;28;20050;-73
2021/09/26 08:10:45;;;;;;;4.43;2.60;;;;;;;;;;4984355;28;20428;-67
2021/09/26 08:13:14;;;;;;;3.88;2.20;;;;;;;;;;4993973;28;20070;-67
2021/09/26 08:15:43;;;;;;;5.28;2.58;;;;;;;;;;4996770;28;20070;-69
2021/09/26 08:18:11;;;;;;;5.57;2.42;;;;;;;;;;4994287;28;20057;-71
2021/09/26 08:20:41;;;;;;;3.35;2.33;;;;;;;;;;4985575;28;20046;-67
2021/09/26 08:23:10;;;;;;;2.63;1.92;;;;;;;;;;4993890;28;20133;-67
2021/09/26 08:25:38;;;;;;;6.53;2.25;;;;;;;;;;4993787;28;20042;-72
2021/09/26 08:28:07;;;;;;;3.15;2.05;;;;;;;;;;4989854;28;20318;-67
2021/09/26 08:30:36;;;;;;;4.85;1.83;;;;;;;;;;4990635;28;20113;-67
2021/09/26 08:33:05;;;;;;;3.53;1.85;;;;;;;;;;4993879;28;20101;-67
2021/09/26 08:35:35;;;;;;;3.72;2.30;;;;;;;;;;4993829;28;20490;-67
2021/09/26 08:38:05;;;;;;;3.83;2.38;;;;;;;;;;4991285;28;20141;-75
2021/09/26 08:40:34;;;;;;;3.67;2.22;;;;;;;;;;4992520;28;20051;-67
2021/09/26 08:43:03;;;;;;;4.80;2.00;;;;;;;;;;4988519;28;20054;-73
2021/09/26 08:45:35;;;;;;;4.93;2.33;;;;;;;;;;4977167;28;20507;-68
2021/09/26 08:48:03;;;;;;;4.20;1.98;;;;;;;;;;4987494;28;20081;-71
2021/09/26 08:50:32;;;;;;;4.38;2.20;;;;;;;;;;4992090;28;20048;-70
2021/09/26 08:53:01;;;;;;;4.50;2.03;;;;;;;;;;4988165;28;20148;-70
2021/09/26 08:55:31;;;;;;;3.42;2.28;;;;;;;;;;4983412;28;20473;-67
2021/09/26 08:57:59;;;;;;;4.45;2.22;;;;;;;;;;4989643;28;20043;-67
2021/09/26 09:00:28;;;;;;;4.80;1.95;;;;;;;;;;4991605;28;20171;-67
2021/09/26 09:02:58;;;;;;;4.32;2.10;;;;;;;;;;4990746;28;20438;-68
2021/09/26 09:05:28;;;;;;;4.93;2.20;;;;;;;;;;4990685;28;20046;-70
2021/09/26 09:08:07;;;;;;;3.47;2.28;;;;;;;;;;4992856;28;20058;-72
2021/09/26 09:10:44;;;;;;;4.35;1.88;;;;;;;;;;4991969;28;20042;-67
2021/09/26 09:13:14;;;;;;;3.70;2.25;;;;;;;;;;4993359;28;20138;-68
2021/09/26 09:15:43;;;;;;;3.55;1.85;;;;;;;;;;4990349;28;20093;-69
2021/09/26 09:18:12;;;;;;;2.92;1.88;;;;;;;;;;4975381;28;20398;-67
2021/09/26 09:20:41;;;;;;;3.25;2.13;;;;;;;;;;4974383;28;20059;-69
2021/09/26 09:23:11;;;;;;;2.72;2.13;;;;;;;;;;4974102;28;20043;-72
2021/09/26 09:25:41;;;;;;;3.90;1.73;;;;;;;;;;4986844;28;20487;-67
2021/09/26 09:28:12;;;;;;;3.40;2.08;;;;;;;;;;4993494;28;20054;-67
2021/09/26 09:30:42;;;;;;;3.53;1.77;;;;;;;;;;4993801;28;20495;-67
2021/09/26 09:33:12;;;;;;;4.78;1.75;;;;;;;;;;4993009;28;20085;-69
2021/09/26 09:35:42;;;;;;;3.95;1.73;;;;;;;;;;4993747;28;20061;-67
2021/09/26 09:38:11;;;;;;;6.18;1.85;;;;;;;;;;4992093;28;20050;-69
2021/09/26 09:40:40;;;;;;;5.20;1.70;;;;;;;;;;4994046;28;20061;-69
2021/09/26 09:43:09;;;;;;;3.17;2.00;;;;;;;;;;4989300;28;20073;-71
2021/09/26 09:45:47;;;;;;;3.63;1.40;;;;;;;;;;4992764;28;20161;-73
2021/09/26 09:48:17;;;;;;;2.92;1.70;;;;;;;;;;4992934;28;20485;-67
2021/09/26 09:50:50;;;;;;;6.60;1.80;;;;;;;;;;4989733;28;20356;-67
2021/09/26 09:53:21;;;;;;;3.88;2.10;;;;;;;;;;4973530;28;20043;-68
2021/09/26 09:55:56;;;;;;;4.93;2.10;;;;;;;;;;4986806;28;20061;-68
2021/09/26 09:58:25;;;;;;;6.22;2.05;;;;;;;;;;4993461;28;20053;-67
2021/09/26 10:00:56;;;;;;;2.58;1.50;;;;;;;;;;4973606;28;20092;-67
2021/09/26 10:03:48;;;;;;;4.50;1.90;;;;;;;;;;4973241;28;20527;-67
2021/09/26 10:06:24;;;;;;;6.43;2.10;;;;;;;;;;4989058;28;20058;-70
2021/09/26 10:08:53;;;;;;;3.13;1.83;;;;;;;;;;4993728;28;20054;-70
2021/09/26 10:11:25;;;;;;;5.03;1.75;;;;;;;;;;4993425;28;20148;-68
2021/09/26 10:13:54;;;;;;;4.28;2.00;;;;;;;;;;4990397;28;20050;-68
2021/09/26 10:16:24;;;;;;;5.43;2.00;;;;;;;;;;4982567;28;20050;-69
2021/09/26 10:18:54;;;;;;;2.97;2.00;;;;;;;;;;4986835;28;20093;-70
2021/09/26 10:21:23;;;;;;;5.93;2.50;;;;;;;;;;4991490;28;20387;-70
2021/09/26 10:23:53;;;;;;;5.28;1.70;;;;;;;;;;4991284;28;20039;-67
2021/09/26 10:26:24;;;;;;;6.70;1.80;;;;;;;;;;4988029;28;20042;-67
2021/09/26 10:28:55;;;;;;;6.25;1.80;;;;;;;;;;4981570;28;20054;-70
2021/09/26 10:31:27;;;;;;;4.05;2.13;;;;;;;;;;4974165;28;20062;-67
2021/09/26 10:33:57;;;;;;;5.38;1.77;;;;;;;;;;4979482;28;20142;-70
2021/09/26 10:36:26;;;;;;;6.80;1.48;;;;;;;;;;4980672;28;20050;-66
2021/09/26 10:38:55;;;;;;;7.47;2.00;;;;;;;;;;4992145;28;20043;-67
2021/09/26 10:41:25;;;;;;;4.00;1.50;;;;;;;;;;4984136;28;20076;-67
2021/09/26 10:43:54;;;;;;;4.82;1.83;;;;;;;;;;4976227;28;20066;-69
2021/09/26 10:46:24;;;;;;;4.32;1.70;;;;;;;;;;4980357;28;20479;-67
2021/09/26 10:49:08;;;;;;;7.38;2.85;;;;;;;;;;4992271;28;20047;-71
2021/09/26 10:51:54;;;;;;;3.10;1.88;;;;;;;;;;4991864;28;20050;-71
2021/09/26 10:54:37;;;;;;;3.15;1.70;;;;;;;;;;4991511;28;20507;-67
2021/09/26 10:57:20;;;;;;;4.30;1.50;;;;;;;;;;4992131;28;20052;-66
2021/09/26 10:59:49;;;;;;;6.10;2.05;;;;;;;;;;4978661;28;20410;-68
2021/09/26 11:02:40;;;;;;;5.63;2.08;;;;;;;;;;4991586;28;20089;-72
2021/09/26 11:05:29;;;;;;;3.45;1.80;;;;;;;;;;4991474;28;20165;-69
2021/09/26 11:07:58;;;;;;;6.53;1.70;;;;;;;;;;4991305;28;20137;-66
2021/09/26 11:10:37;;;;;;;4.00;1.70;;;;;;;;;;4991971;28;20042;-68
2021/09/26 11:13:11;;;;;;;7.22;1.67;;;;;;;;;;4990903;28;20057;-66
2021/09/26 11:16:02;;;;;;;7.22;1.95;;;;;;;;;;4991482;28;20054;-66
2021/09/26 11:19:04;;;;;;;3.20;1.85;;;;;;;;;;4991399;28;20120;-66
2021/09/26 11:21:53;;;;;;;4.22;1.85;;;;;;;;;;4990385;28;20533;-69
2021/09/26 11:24:27;;;;;;;6.47;1.70;;;;;;;;;;4983729;28;20058;-73
2021/09/26 11:27:04;;;;;;;3.00;2.00;;;;;;;;;;4975789;28;20050;-66
2021/09/26 11:29:56;;;;;;;6.28;2.10;;;;;;;;;;4989949;28;20093;-66
2021/09/26 11:32:34;;;;;;;3.95;1.85;;;;;;;;;;4981860;28;20042;-66
2021/09/26 11:35:04;;;;;;;4.55;1.92;;;;;;;;;;4971271;28;20058;-67
2021/09/26 11:41:01;;;;;;;4.53;1.90;;;;;;;;;;5105407;27;20381;-69
2021/09/26 11:43:33;;;;;;;3.63;1.95;;;;;;;;;;5065269;27;20380;-67
2021/09/26 11:46:02;;;;;;;6.05;2.13;;;;;;;;;;5032828;28;20479;-66
2021/09/26 11:48:34;;;;;;;5.35;2.08;;;;;;;;;;5029835;28;20054;-66
2021/09/26 11:51:07;;;;;;;3.75;2.10;;;;;;;;;;5040438;28;20038;-70
2021/09/26 11:53:36;;;;;;;5.90;2.17;;;;;;;;;;5029771;28;20048;-67
2021/09/26 11:56:16;;;;;;;3.33;2.03;;;;;;;;;;5044097;28;20146;-69
2021/09/26 11:58:46;;;;;;;3.25;1.80;;;;;;;;;;5046344;28;20104;-74
2021/09/26 12:01:14;;;;;;;3.17;1.98;;;;;;;;;;5046530;28;20107;-70
2021/09/26 12:03:43;;;;;;;3.08;1.63;;;;;;;;;;5047123;28;20052;-67
2021/09/26 12:06:18;;;;;;;9.05;2.08;;;;;;;;;;5046644;28;20069;-67
2021/09/26 12:08:47;;;;;;;6.57;1.98;;;;;;;;;;5044869;28;20550;-67
2021/09/26 12:11:16;;;;;;;2.17;1.50;;;;;;;;;;5029127;28;20129;-67
2021/09/26 12:13:47;;;;;;;4.68;1.70;;;;;;;;;;5042310;28;20483;-73
2021/09/26 12:16:16;;;;;;;2.90;1.80;;;;;;;;;;5046013;28;20493;-70
2021/09/26 12:18:50;;;;;;;2.78;1.60;;;;;;;;;;5045470;28;20081;-69
2021/09/26 12:21:19;;;;;;;7.88;2.15;;;;;;;;;;5042194;28;20053;-76
2021/09/26 12:23:51;;;;;;;5.28;1.90;;;;;;;;;;5045185;28;20497;-73
2021/09/26 12:26:21;;;;;;;5.55;1.52;;;;;;;;;;5045761;28;20041;-67
2021/09/26 12:29:04;;;;;;;7.78;2.55;;;;;;;;;;5044526;28;20049;-67
2021/09/26 12:31:33;;;;;;;2.53;1.58;;;;;;;;;;5041225;28;20052;-68
2021/09/26 12:34:01;;;;;;;5.80;2.25;;;;;;;;;;5029138;28;20056;-69
2021/09/26 12:36:31;;;;;;;2.55;1.73;;;;;;;;;;5034023;28;20081;-66
2021/09/26 12:39:01;;;;;;;3.20;2.05;;;;;;;;;;5035164;28;20490;-67
2021/09/26 12:41:31;;;;;;;4.65;1.88;;;;;;;;;;5028504;28;20054;-67
2021/09/26 12:44:01;;;;;;;6.35;2.22;;;;;;;;;;5043743;28;20428;-67
2021/09/26 12:46:32;;;;;;;3.55;1.90;;;;;;;;;;5045853;28;20053;-66
2021/09/26 12:49:01;;;;;;;4.18;2.05;;;;;;;;;;5032853;28;20052;-72
2021/09/26 12:51:31;;;;;;;6.90;2.70;;;;;;;;;;5019393;28;20060;-68
2021/09/26 12:54:02;;;;;;;7.38;2.40;;;;;;;;;;5021336;28;20046;-67
2021/09/26 12:56:32;;;;;;;5.25;2.50;;;;;;;;;;5012808;28;20130;-68
2021/09/26 12:59:16;;;;;;;7.35;2.83;;;;;;;;;;5029151;28;20068;-67
2021/09/26 13:01:45;;;;;;;6.15;2.45;;;;;;;;;;5016679;28;20074;-67
2021/09/26 13:04:17;;;;;;;6.47;2.85;;;;;;;;;;5011655;28;20050;-67
2021/09/26 13:06:49;;;;;;;8.60;2.53;;;;;;;;;;5010516;28;20046;-68
2021/09/26 13:09:22;;;;;;;6.35;2.33;;;;;;;;;;5003311;28;20053;-73
2021/09/26 13:11:51;;;;;;;6.90;3.58;;;;;;;;;;5012360;28;20498;-66
2021/09/26 13:14:35;;;;;;;3.85;2.50;;;;;;;;;;5018822;28;20046;-66
2021/09/26 13:17:12;;;;;;;5.57;2.75;;;;;;;;;;5023611;28;20049;-71
2021/09/26 13:19:42;;;;;;;4.35;1.85;;;;;;;;;;5025309;28;20049;-71
2021/09/26 13:22:13;;;;;;;5.43;2.38;;;;;;;;;;5029888;28;20092;-69
2021/09/26 13:24:44;;;;;;;4.72;2.50;;;;;;;;;;5025689;28;20041;-67
2021/09/26 13:27:16;;;;;;;9.70;3.35;;;;;;;;;;5019981;28;20045;-67
2021/09/26 13:29:45;;;;;;;5.15;2.17;;;;;;;;;;5028872;28;20057;-67
2021/09/26 13:32:15;;;;;;;7.40;2.28;;;;;;;;;;5031263;28;20041;-67
2021/09/26 13:34:44;;;;;;;4.68;2.33;;;;;;;;;;5026439;28;20041;-66
2021/09/26 13:37:14;;;;;;;4.60;2.60;;;;;;;;;;5032916;28;20053;-70
2021/09/26 13:39:46;;;;;;;6.50;2.08;;;;;;;;;;5033061;28;20054;-66
2021/09/26 13:42:26;;;;;;;4.15;2.45;;;;;;;;;;5032494;28;20484;-67
2021/09/26 13:44:56;;;;;;;3.13;2.10;;;;;;;;;;5032006;28;20060;-69
2021/09/26 13:47:25;;;;;;;10.85;2.47;;;;;;;;;;5021907;28;20046;-67
2021/09/26 13:49:54;;;;;;;4.25;2.42;;;;;;;;;;5014141;28;20133;-67
2021/09/26 13:52:23;;;;;;;3.85;2.38;;;;;;;;;;5032090;28;20489;-67
2021/09/26 13:54:54;;;;;;;4.68;2.30;;;;;;;;;;5031948;28;20420;-68
2021/09/26 13:57:23;;;;;;;5.00;2.40;;;;;;;;;;5022250;28;20133;-67
2021/09/26 13:59:52;;;;;;;4.75;2.55;;;;;;;;;;5024766;28;20046;-66
2021/09/26 14:02:22;;;;;;;5.03;2.38;;;;;;;;;;5016182;28;20046;-66
2021/09/26 14:04:51;;;;;;;5.53;2.15;;;;;;;;;;5030831;28;20396;-68
2021/09/26 14:07:20;;;;;;;4.15;2.20;;;;;;;;;;5031942;28;20107;-67
2021/09/26 14:09:49;;;;;;;5.97;2.45;;;;;;;;;;5018150;28;20482;-69
2021/09/26 14:12:20;;;;;;;5.80;2.72;;;;;;;;;;5026643;28;20493;-71
2021/09/26 14:14:49;;;;;;;5.07;2.45;;;;;;;;;;5015229;28;20068;-71
2021/09/26 14:17:18;;;;;;;8.13;2.75;;;;;;;;;;5018871;28;20045;-71
2021/09/26 14:19:47;;;;;;;5.75;2.78;;;;;;;;;;5021321;28;20050;-67
2021/09/26 14:22:16;;;;;;;5.20;2.30;;;;;;;;;;5028832;28;20053;-66
2021/09/26 14:24:45;;;;;;;6.30;2.28;;;;;;;;;;5026553;28;20073;-67
2021/09/26 14:27:14;;;;;;;5.22;2.50;;;;;;;;;;5016699;28;20132;-67
2021/09/26 14:29:44;;;;;;;6.57;2.30;;;;;;;;;;5027508;28;20049;-67
2021/09/26 14:32:12;;;;;;;6.40;2.55;;;;;;;;;;5031061;28;20045;-66
2021/09/26 14:34:45;;;;;;;3.83;2.25;;;;;;;;;;5022861;28;20042;-66
2021/09/26 14:37:14;;;;;;;6.53;2.45;;;;;;;;;;5016869;28;20045;-66
2021/09/26 14:39:43;;;;;;;4.38;2.38;;;;;;;;;;5031785;28;20063;-66
2021/09/26 14:42:11;;;;;;;6.03;2.53;;;;;;;;;;5018062;28;20046;-66
2021/09/26 14:44:40;;;;;;;6.57;2.85;;;;;;;;;;5020568;28;20085;-69
2021/09/26 14:47:10;;;;;;;4.55;1.98;;;;;;;;;;5013710;28;20104;-67
2021/09/26 14:49:39;;;;;;;5.07;2.88;;;;;;;;;;5021853;28;20076;-70
2021/09/26 14:52:08;;;;;;;5.72;2.58;;;;;;;;;;5022865;28;20318;-71
2021/09/26 14:54:37;;;;;;;5.70;2.75;;;;;;;;;;5012517;28;20063;-67
2021/09/26 14:57:06;;;;;;;11.98;2.70;;;;;;;;;;5018675;28;20049;-69
2021/09/26 14:59:34;;;;;;;7.00;3.35;;;;;;;;;;5031489;28;20060;-66
2021/09/26 15:02:03;;;;;;;4.63;2.78;;;;;;;;;;5031356;28;20051;-67
2021/09/26 15:04:36;;;;;;;6.63;2.95;;;;;;;;;;5027037;28;20100;-67